WLBY18 YAMB-YROM
Flight info
| Callsign | WLBY18 |
|---|---|
| Flight time | N/A |
| Altitude | 18000 |
| Route | MESED Q484 ROM |
| Aircraft | C27J/M-SDFGHIRTUY/S |
Departure
| Time | 2026-05-04 03:23 |
|---|---|
| Airport | RAAF Base Amberley (YAMB) |
Arrival
| Time | N/A |
|---|---|
| Airport | Roma Airport (YROM) |
| Time | Latitude | Longitude | Altitude | Speed | Heading |
|---|---|---|---|---|---|
| 2026-05-04 03:23 | -27.61983 | 152.74227 | 1321 ft | 200 kts | 27° |
| 2026-05-04 03:23 | -27.60662 | 152.74429 | 1508 ft | 186 kts | 349° |
| 2026-05-04 03:23 | -27.59658 | 152.73727 | 1711 ft | 164 kts | 307° |
| 2026-05-04 03:24 | -27.59350 | 152.72589 | 1904 ft | 140 kts | 274° |
| 2026-05-04 03:24 | -27.59325 | 152.71467 | 2151 ft | 151 kts | 271° |
| 2026-05-04 03:24 | -27.59318 | 152.70203 | 2501 ft | 179 kts | 271° |
| 2026-05-04 03:24 | -27.59306 | 152.68660 | 2824 ft | 215 kts | 271° |
| 2026-05-04 03:25 | -27.59283 | 152.66852 | 3163 ft | 244 kts | 271° |
| 2026-05-04 03:25 | -27.59237 | 152.64848 | 3481 ft | 265 kts | 273° |
| 2026-05-04 03:25 | -27.59071 | 152.62725 | 3802 ft | 277 kts | 278° |
| 2026-05-04 03:25 | -27.58741 | 152.60564 | 4112 ft | 282 kts | 283° |
| 2026-05-04 03:26 | -27.58283 | 152.58433 | 4411 ft | 284 kts | 286° |
| 2026-05-04 03:26 | -27.57749 | 152.56385 | 4706 ft | 287 kts | 288° |
| 2026-05-04 03:26 | -27.57116 | 152.54246 | 5019 ft | 289 kts | 290° |
| 2026-05-04 03:26 | -27.56430 | 152.52110 | 5324 ft | 291 kts | 291° |
| 2026-05-04 03:27 | -27.55705 | 152.49973 | 5625 ft | 292 kts | 292° |
| 2026-05-04 03:27 | -27.54951 | 152.47843 | 5926 ft | 293 kts | 293° |
| 2026-05-04 03:27 | -27.54171 | 152.45699 | 6229 ft | 295 kts | 293° |
| 2026-05-04 03:27 | -27.53380 | 152.43561 | 6530 ft | 296 kts | 294° |
| 2026-05-04 03:28 | -27.52576 | 152.41417 | 6831 ft | 297 kts | 294° |
| 2026-05-04 03:28 | -27.51759 | 152.39263 | 7132 ft | 299 kts | 294° |
| 2026-05-04 03:28 | -27.50937 | 152.37112 | 7433 ft | 300 kts | 294° |
| 2026-05-04 03:28 | -27.50108 | 152.34945 | 7731 ft | 301 kts | 294° |
| 2026-05-04 03:29 | -27.49285 | 152.32801 | 8030 ft | 302 kts | 294° |
| 2026-05-04 03:29 | -27.48448 | 152.30625 | 8331 ft | 303 kts | 294° |
| 2026-05-04 03:29 | -27.47606 | 152.28442 | 8634 ft | 305 kts | 294° |
| 2026-05-04 03:29 | -27.46757 | 152.26244 | 8936 ft | 306 kts | 294° |
| 2026-05-04 03:30 | -27.45906 | 152.24041 | 9237 ft | 307 kts | 294° |
| 2026-05-04 03:30 | -27.45052 | 152.21832 | 9540 ft | 308 kts | 294° |
| 2026-05-04 03:30 | -27.44197 | 152.19619 | 9841 ft | 308 kts | 294° |
| 2026-05-04 03:30 | -27.43340 | 152.17404 | 10141 ft | 308 kts | 294° |
| 2026-05-04 03:31 | -27.42491 | 152.15210 | 10441 ft | 308 kts | 294° |
| 2026-05-04 03:31 | -27.41637 | 152.13006 | 10741 ft | 307 kts | 294° |
| 2026-05-04 03:31 | -27.40780 | 152.10798 | 11046 ft | 306 kts | 294° |
| 2026-05-04 03:31 | -27.39928 | 152.08607 | 11346 ft | 305 kts | 294° |
| 2026-05-04 03:32 | -27.39077 | 152.06415 | 11645 ft | 304 kts | 294° |
| 2026-05-04 03:32 | -27.38516 | 152.04974 | 11845 ft | 303 kts | 294° |
| 2026-05-04 03:32 | -27.37390 | 152.02077 | 12246 ft | 302 kts | 294° |
| 2026-05-04 03:32 | -27.36831 | 152.00640 | 12446 ft | 301 kts | 294° |
| 2026-05-04 03:33 | -27.35993 | 151.98489 | 12745 ft | 300 kts | 294° |
| 2026-05-04 03:33 | -27.35157 | 151.96343 | 13046 ft | 299 kts | 294° |
| 2026-05-04 03:33 | -27.34323 | 151.94202 | 13343 ft | 297 kts | 294° |
| 2026-05-04 03:33 | -27.33229 | 151.91393 | 13738 ft | 296 kts | 294° |
| 2026-05-04 03:34 | -27.32679 | 151.89981 | 13936 ft | 295 kts | 294° |
| 2026-05-04 03:34 | -27.31900 | 151.87846 | 14237 ft | 295 kts | 292° |
| 2026-05-04 03:34 | -27.30942 | 151.84982 | 14636 ft | 293 kts | 291° |
| 2026-05-04 03:34 | -27.30475 | 151.83526 | 14839 ft | 293 kts | 291° |
| 2026-05-04 03:35 | -27.29798 | 151.81368 | 15139 ft | 292 kts | 290° |
| 2026-05-04 03:35 | -27.29140 | 151.79239 | 15436 ft | 291 kts | 290° |
| 2026-05-04 03:35 | -27.28484 | 151.77093 | 15736 ft | 290 kts | 290° |
| 2026-05-04 03:35 | -27.27836 | 151.74962 | 16035 ft | 289 kts | 290° |
| 2026-05-04 03:36 | -27.27188 | 151.72822 | 16336 ft | 287 kts | 290° |
| 2026-05-04 03:36 | -27.26549 | 151.70704 | 16635 ft | 286 kts | 290° |
| 2026-05-04 03:36 | -27.25915 | 151.68600 | 16933 ft | 284 kts | 290° |
| 2026-05-04 03:36 | -27.25284 | 151.66501 | 17232 ft | 282 kts | 290° |
| 2026-05-04 03:37 | -27.24658 | 151.64419 | 17528 ft | 280 kts | 290° |
| 2026-05-04 03:37 | -27.24034 | 151.62341 | 17784 ft | 280 kts | 290° |
| 2026-05-04 03:37 | -27.23407 | 151.60256 | 17918 ft | 283 kts | 290° |
| 2026-05-04 03:37 | -27.22772 | 151.58145 | 17987 ft | 288 kts | 290° |
| 2026-05-04 03:38 | -27.22122 | 151.55987 | 17997 ft | 292 kts | 290° |
| 2026-05-04 03:38 | -27.21911 | 151.55285 | 17998 ft | 293 kts | 290° |